Flugplatz Gotha-Ost (EDEG)

Hier findest Du alle Informationen zum Flugplatz Gotha-Ost (EDEG).

Informationen für Piloten zum Flugplatz Gotha-Ost

Hier findest Du alle relevanten Informationen, die Du als Pilot benötigst, um Gotha-Ost anzufliegen.

Flugplatz: Gotha-Ost ICAO-Code: EDEG
Frequenz Turm: 122,500 Mhz GAFOR Gebiet: 24
Frequenz Ground: 122,500 Mhz Mogas: nein
Platzrunde: N 1800 ft Landegebühr: -
Platzhöhe: 990 ft Sunrise: 04:21 Uhr UTC
Pisten: 08/26 - 470 m x , GRAS Sunset: 18:13 Uhr UTC

Mitglieder, die in Gotha-Ost fliegen

Flugwetter am Flugplatz Gotha-Ost

Die METAR Information stammen aus EDDE (16.13 km entfernt).

METAR Code:
2024/02/02 09:50
EDDE 020950Z AUTO 22018KT 9999 OVC046 05/M00 Q1026 TEMPO 22015G25KT

Flugschulen am Flugplatz Gotha-Ost

Am Flugplatz Gotha-Ost gibt es eine Flugschule.

Benachbarte Flugplätze und Flugschulen

Es gibt 14 weitere Flugplätze in einem Umkreis von 50 km um den Flugplatz Gotha-Ost.

Jetzt anmelden

Passwort vergessen

Umfrage Archiv

Wie häufig haltet Ihr die Halbkreisflugregel ein?

Eher häufig!
34.6 %
Immer!
32.1 %
Hin und wieder!
16.5 %
Nie!
9.3 %
Eher selten!
7.6 %
Stimmen: 237 | Diskussion
Anzeige: Roland Aircraft
Statistik Alle Mitglieder

Aktuell sind 27 Besucher online, davon 2 Mitglieder und 25 Gäste.


Mitglieder online:
Pink Panther  cassbiz 

Anzeige: EasyVFR